Terminal Aerodrome Forecast
Issued by NWS

Home | Current Version | Previous Version | Text Only | Print | Product List | Glossary On
Versions: 1 2 3 4 5 6 7 8 9 10 11 12 13 14 15 16 17 18 19 20 21 22 23 24 25 26 27 28 29 30
000
FTUS41 KOKX 240235 AAC
TAFGON
TAF AMD
KGON 240235Z 2403/2424 VRB03KT P6SM FEW250
     FM240600 18004KT P6SM BKN150
     FM241200 20009KT P6SM BKN120
     FM241600 21012KT P6SM BKN080
     FM241800 21013KT P6SM VCSH OVC040
     FM242000 23014G22KT P6SM VCSH OVC040=

USA.gov is the U.S. government's official web portal to all federal, state and local government web resources and services.